sensor_id;sensor_type;location;lat;lon;timestamp;P1;durP1;ratioP1;P2;durP2;ratioP2
7191;SDS011;3637;51.494;11.958;2023-12-20T00:01:49;4.67;;;4.20;;
7191;SDS011;3637;51.494;11.958;2023-12-20T00:08:00;5.13;;;4.00;;
7191;SDS011;3637;51.494;11.958;2023-12-20T00:11:03;5.43;;;4.47;;
7191;SDS011;3637;51.494;11.958;2023-12-20T00:14:07;5.13;;;4.33;;
7191;SDS011;3637;51.494;11.958;2023-12-20T00:17:10;4.60;;;4.00;;
7191;SDS011;3637;51.494;11.958;2023-12-20T00:20:15;5.30;;;4.37;;
7191;SDS011;3637;51.494;11.958;2023-12-20T00:23:17;7.67;;;4.70;;
7191;SDS011;3637;51.494;11.958;2023-12-20T00:26:19;4.97;;;4.30;;
7191;SDS011;3637;51.494;11.958;2023-12-20T00:29:22;5.50;;;4.63;;
7191;SDS011;3637;51.494;11.958;2023-12-20T00:32:24;4.37;;;3.97;;
7191;SDS011;3637;51.494;11.958;2023-12-20T00:35:28;4.40;;;3.80;;
7191;SDS011;3637;51.494;11.958;2023-12-20T00:38:31;5.17;;;4.23;;
7191;SDS011;3637;51.494;11.958;2023-12-20T00:41:32;5.40;;;4.17;;
7191;SDS011;3637;51.494;11.958;2023-12-20T00:44:35;4.53;;;3.97;;
7191;SDS011;3637;51.494;11.958;2023-12-20T00:47:37;4.80;;;4.10;;
7191;SDS011;3637;51.494;11.958;2023-12-20T00:50:40;4.60;;;4.03;;
7191;SDS011;3637;51.494;11.958;2023-12-20T00:53:42;5.40;;;4.10;;
7191;SDS011;3637;51.494;11.958;2023-12-20T00:57:05;4.73;;;4.07;;
7191;SDS011;3637;51.494;11.958;2023-12-20T01:00:08;4.97;;;4.17;;
7191;SDS011;3637;51.494;11.958;2023-12-20T01:03:13;5.53;;;4.60;;
7191;SDS011;3637;51.494;11.958;2023-12-20T01:06:19;4.43;;;4.03;;
7191;SDS011;3637;51.494;11.958;2023-12-20T01:09:22;4.03;;;3.63;;
7191;SDS011;3637;51.494;11.958;2023-12-20T01:12:46;5.03;;;4.23;;
7191;SDS011;3637;51.494;11.958;2023-12-20T01:15:48;4.40;;;4.00;;
7191;SDS011;3637;51.494;11.958;2023-12-20T01:18:50;4.43;;;4.03;;
7191;SDS011;3637;51.494;11.958;2023-12-20T01:21:55;4.70;;;3.97;;
7191;SDS011;3637;51.494;11.958;2023-12-20T01:25:00;5.13;;;4.07;;
7191;SDS011;3637;51.494;11.958;2023-12-20T01:28:05;4.77;;;4.27;;
7191;SDS011;3637;51.494;11.958;2023-12-20T01:31:10;4.30;;;3.90;;
7191;SDS011;3637;51.494;11.958;2023-12-20T01:34:18;5.00;;;4.17;;
7191;SDS011;3637;51.494;11.958;2023-12-20T01:37:22;4.60;;;4.10;;
7191;SDS011;3637;51.494;11.958;2023-12-20T01:40:26;5.77;;;4.57;;
7191;SDS011;3637;51.494;11.958;2023-12-20T01:43:31;5.00;;;4.50;;
7191;SDS011;3637;51.494;11.958;2023-12-20T01:46:34;5.70;;;4.07;;
7191;SDS011;3637;51.494;11.958;2023-12-20T01:49:39;6.30;;;5.10;;
7191;SDS011;3637;51.494;11.958;2023-12-20T01:52:49;5.53;;;4.30;;
7191;SDS011;3637;51.494;11.958;2023-12-20T01:55:52;5.60;;;4.70;;
7191;SDS011;3637;51.494;11.958;2023-12-20T01:58:57;5.40;;;4.60;;
7191;SDS011;3637;51.494;11.958;2023-12-20T02:02:01;5.10;;;4.60;;
7191;SDS011;3637;51.494;11.958;2023-12-20T02:05:06;5.27;;;4.53;;
7191;SDS011;3637;51.494;11.958;2023-12-20T02:11:34;5.63;;;4.33;;
7191;SDS011;3637;51.494;11.958;2023-12-20T02:14:42;6.10;;;4.43;;
7191;SDS011;3637;51.494;11.958;2023-12-20T02:21:03;5.07;;;4.23;;
7191;SDS011;3637;51.494;11.958;2023-12-20T02:24:12;4.63;;;4.17;;
7191;SDS011;3637;51.494;11.958;2023-12-20T02:27:14;4.93;;;4.07;;
7191;SDS011;3637;51.494;11.958;2023-12-20T02:30:19;5.00;;;4.10;;
7191;SDS011;3637;51.494;11.958;2023-12-20T02:33:27;5.20;;;4.40;;
7191;SDS011;3637;51.494;11.958;2023-12-20T02:36:32;5.50;;;4.27;;
7191;SDS011;3637;51.494;11.958;2023-12-20T02:39:39;4.57;;;4.10;;
7191;SDS011;3637;51.494;11.958;2023-12-20T02:45:46;5.37;;;4.20;;
7191;SDS011;3637;51.494;11.958;2023-12-20T02:48:51;4.43;;;4.03;;
7191;SDS011;3637;51.494;11.958;2023-12-20T02:51:53;5.47;;;4.63;;
7191;SDS011;3637;51.494;11.958;2023-12-20T02:55:03;4.87;;;3.90;;
7191;SDS011;3637;51.494;11.958;2023-12-20T02:58:06;5.23;;;4.10;;
7191;SDS011;3637;51.494;11.958;2023-12-20T03:01:09;5.37;;;4.17;;
7191;SDS011;3637;51.494;11.958;2023-12-20T03:04:34;4.33;;;3.93;;
7191;SDS011;3637;51.494;11.958;2023-12-20T03:07:52;4.43;;;3.87;;
7191;SDS011;3637;51.494;11.958;2023-12-20T03:10:57;5.37;;;4.37;;
7191;SDS011;3637;51.494;11.958;2023-12-20T03:14:00;5.10;;;4.40;;
7191;SDS011;3637;51.494;11.958;2023-12-20T03:17:03;4.80;;;3.87;;
7191;SDS011;3637;51.494;11.958;2023-12-20T03:20:07;4.57;;;3.90;;
7191;SDS011;3637;51.494;11.958;2023-12-20T03:23:11;3.80;;;3.40;;
7191;SDS011;3637;51.494;11.958;2023-12-20T03:26:19;4.40;;;4.00;;
7191;SDS011;3637;51.494;11.958;2023-12-20T03:29:41;5.00;;;3.87;;
7191;SDS011;3637;51.494;11.958;2023-12-20T03:32:45;4.47;;;3.30;;
7191;SDS011;3637;51.494;11.958;2023-12-20T03:35:47;4.77;;;4.13;;
7191;SDS011;3637;51.494;11.958;2023-12-20T03:38:54;4.63;;;4.07;;
7191;SDS011;3637;51.494;11.958;2023-12-20T03:41:58;5.73;;;4.60;;
7191;SDS011;3637;51.494;11.958;2023-12-20T03:45:00;4.83;;;4.30;;
7191;SDS011;3637;51.494;11.958;2023-12-20T03:48:01;4.83;;;4.33;;
7191;SDS011;3637;51.494;11.958;2023-12-20T03:51:08;5.50;;;4.63;;
7191;SDS011;3637;51.494;11.958;2023-12-20T03:54:10;4.87;;;4.20;;
7191;SDS011;3637;51.494;11.958;2023-12-20T03:57:18;5.27;;;4.60;;
7191;SDS011;3637;51.494;11.958;2023-12-20T04:00:20;4.40;;;4.00;;
7191;SDS011;3637;51.494;11.958;2023-12-20T04:03:22;4.90;;;4.10;;
7191;SDS011;3637;51.494;11.958;2023-12-20T04:06:25;5.30;;;4.00;;
7191;SDS011;3637;51.494;11.958;2023-12-20T04:09:27;5.43;;;4.40;;
7191;SDS011;3637;51.494;11.958;2023-12-20T04:12:40;4.80;;;4.30;;
7191;SDS011;3637;51.494;11.958;2023-12-20T04:15:42;5.47;;;4.70;;
7191;SDS011;3637;51.494;11.958;2023-12-20T04:18:44;4.97;;;4.27;;
7191;SDS011;3637;51.494;11.958;2023-12-20T04:21:47;5.13;;;4.53;;
7191;SDS011;3637;51.494;11.958;2023-12-20T04:24:49;5.23;;;4.53;;
7191;SDS011;3637;51.494;11.958;2023-12-20T04:27:53;5.80;;;4.20;;
7191;SDS011;3637;51.494;11.958;2023-12-20T04:30:54;6.00;;;4.30;;
7191;SDS011;3637;51.494;11.958;2023-12-20T04:33:58;4.93;;;4.33;;
7191;SDS011;3637;51.494;11.958;2023-12-20T04:37:00;4.67;;;4.17;;
7191;SDS011;3637;51.494;11.958;2023-12-20T04:40:04;4.10;;;3.47;;
7191;SDS011;3637;51.494;11.958;2023-12-20T04:43:23;4.50;;;3.63;;
7191;SDS011;3637;51.494;11.958;2023-12-20T04:46:26;4.47;;;3.77;;
7191;SDS011;3637;51.494;11.958;2023-12-20T04:49:29;4.47;;;3.87;;
7191;SDS011;3637;51.494;11.958;2023-12-20T04:52:35;4.67;;;4.00;;
7191;SDS011;3637;51.494;11.958;2023-12-20T04:55:36;5.20;;;4.13;;
7191;SDS011;3637;51.494;11.958;2023-12-20T04:58:41;4.97;;;4.20;;
7191;SDS011;3637;51.494;11.958;2023-12-20T05:01:48;4.73;;;3.83;;
7191;SDS011;3637;51.494;11.958;2023-12-20T05:04:51;4.13;;;3.40;;
7191;SDS011;3637;51.494;11.958;2023-12-20T05:07:53;4.10;;;3.70;;
7191;SDS011;3637;51.494;11.958;2023-12-20T05:10:57;5.40;;;4.30;;
7191;SDS011;3637;51.494;11.958;2023-12-20T05:14:01;4.40;;;3.90;;
7191;SDS011;3637;51.494;11.958;2023-12-20T05:17:03;4.77;;;3.90;;
7191;SDS011;3637;51.494;11.958;2023-12-20T05:20:05;4.27;;;3.87;;
7191;SDS011;3637;51.494;11.958;2023-12-20T05:23:08;4.87;;;4.00;;
7191;SDS011;3637;51.494;11.958;2023-12-20T05:26:11;5.83;;;4.30;;
7191;SDS011;3637;51.494;11.958;2023-12-20T05:29:14;4.87;;;3.93;;
7191;SDS011;3637;51.494;11.958;2023-12-20T05:32:17;5.23;;;3.90;;
7191;SDS011;3637;51.494;11.958;2023-12-20T05:35:19;4.57;;;3.80;;
7191;SDS011;3637;51.494;11.958;2023-12-20T05:38:23;5.13;;;3.60;;
7191;SDS011;3637;51.494;11.958;2023-12-20T05:41:27;4.10;;;3.60;;
7191;SDS011;3637;51.494;11.958;2023-12-20T05:44:31;4.37;;;3.80;;
7191;SDS011;3637;51.494;11.958;2023-12-20T05:47:36;4.37;;;3.60;;
7191;SDS011;3637;51.494;11.958;2023-12-20T05:50:38;4.10;;;3.47;;
7191;SDS011;3637;51.494;11.958;2023-12-20T05:53:41;4.40;;;3.70;;
7191;SDS011;3637;51.494;11.958;2023-12-20T05:56:44;4.53;;;3.67;;
7191;SDS011;3637;51.494;11.958;2023-12-20T05:59:49;5.87;;;3.77;;
7191;SDS011;3637;51.494;11.958;2023-12-20T06:02:50;5.07;;;3.93;;
7191;SDS011;3637;51.494;11.958;2023-12-20T06:05:53;6.17;;;3.60;;
7191;SDS011;3637;51.494;11.958;2023-12-20T06:08:58;4.60;;;3.87;;
7191;SDS011;3637;51.494;11.958;2023-12-20T06:12:17;5.00;;;3.90;;
7191;SDS011;3637;51.494;11.958;2023-12-20T06:15:21;5.57;;;4.03;;
7191;SDS011;3637;51.494;11.958;2023-12-20T06:18:23;5.50;;;3.90;;
7191;SDS011;3637;51.494;11.958;2023-12-20T06:21:25;6.33;;;4.00;;
7191;SDS011;3637;51.494;11.958;2023-12-20T06:24:28;5.43;;;4.37;;
7191;SDS011;3637;51.494;11.958;2023-12-20T06:27:51;7.00;;;4.70;;
7191;SDS011;3637;51.494;11.958;2023-12-20T06:30:56;5.57;;;4.10;;
7191;SDS011;3637;51.494;11.958;2023-12-20T06:34:18;8.67;;;4.07;;
7191;SDS011;3637;51.494;11.958;2023-12-20T06:37:20;6.83;;;4.30;;
7191;SDS011;3637;51.494;11.958;2023-12-20T06:40:23;6.23;;;4.10;;
7191;SDS011;3637;51.494;11.958;2023-12-20T06:43:27;5.90;;;3.73;;
7191;SDS011;3637;51.494;11.958;2023-12-20T06:46:32;6.67;;;4.30;;
7191;SDS011;3637;51.494;11.958;2023-12-20T06:49:34;6.20;;;3.90;;
7191;SDS011;3637;51.494;11.958;2023-12-20T06:52:36;6.60;;;4.10;;
7191;SDS011;3637;51.494;11.958;2023-12-20T06:55:40;5.63;;;3.40;;
7191;SDS011;3637;51.494;11.958;2023-12-20T06:58:42;5.00;;;3.60;;
7191;SDS011;3637;51.494;11.958;2023-12-20T07:01:48;4.30;;;3.13;;
7191;SDS011;3637;51.494;11.958;2023-12-20T07:04:50;8.40;;;4.10;;
7191;SDS011;3637;51.494;11.958;2023-12-20T07:07:52;4.60;;;3.17;;
7191;SDS011;3637;51.494;11.958;2023-12-20T07:10:55;4.40;;;2.87;;
7191;SDS011;3637;51.494;11.958;2023-12-20T07:13:58;5.10;;;2.67;;
7191;SDS011;3637;51.494;11.958;2023-12-20T07:17:03;6.13;;;2.97;;
7191;SDS011;3637;51.494;11.958;2023-12-20T07:20:26;5.93;;;2.63;;
7191;SDS011;3637;51.494;11.958;2023-12-20T07:23:29;4.17;;;2.70;;
7191;SDS011;3637;51.494;11.958;2023-12-20T07:26:34;7.97;;;2.90;;
7191;SDS011;3637;51.494;11.958;2023-12-20T07:29:38;5.40;;;2.50;;
7191;SDS011;3637;51.494;11.958;2023-12-20T07:32:41;4.60;;;2.43;;
7191;SDS011;3637;51.494;11.958;2023-12-20T07:35:48;4.70;;;2.37;;
7191;SDS011;3637;51.494;11.958;2023-12-20T07:38:55;4.70;;;2.20;;
7191;SDS011;3637;51.494;11.958;2023-12-20T07:41:59;2.80;;;2.00;;
7191;SDS011;3637;51.494;11.958;2023-12-20T07:45:03;7.70;;;2.50;;
7191;SDS011;3637;51.494;11.958;2023-12-20T07:48:09;5.77;;;2.97;;
7191;SDS011;3637;51.494;11.958;2023-12-20T07:51:13;3.50;;;2.10;;
7191;SDS011;3637;51.494;11.958;2023-12-20T07:54:18;3.57;;;2.00;;
7191;SDS011;3637;51.494;11.958;2023-12-20T07:57:21;3.40;;;2.20;;
7191;SDS011;3637;51.494;11.958;2023-12-20T08:00:23;4.07;;;2.10;;
7191;SDS011;3637;51.494;11.958;2023-12-20T08:03:29;5.03;;;2.10;;
7191;SDS011;3637;51.494;11.958;2023-12-20T08:06:34;7.37;;;2.47;;
7191;SDS011;3637;51.494;11.958;2023-12-20T08:09:37;6.87;;;2.57;;
7191;SDS011;3637;51.494;11.958;2023-12-20T08:12:39;6.63;;;2.57;;
7191;SDS011;3637;51.494;11.958;2023-12-20T08:15:41;4.93;;;2.10;;
7191;SDS011;3637;51.494;11.958;2023-12-20T08:18:45;4.13;;;2.57;;
7191;SDS011;3637;51.494;11.958;2023-12-20T08:21:54;5.13;;;2.20;;
7191;SDS011;3637;51.494;11.958;2023-12-20T08:24:57;5.20;;;2.30;;
7191;SDS011;3637;51.494;11.958;2023-12-20T08:28:01;3.43;;;2.20;;
7191;SDS011;3637;51.494;11.958;2023-12-20T08:31:04;5.20;;;2.17;;
7191;SDS011;3637;51.494;11.958;2023-12-20T08:34:08;6.53;;;2.10;;
7191;SDS011;3637;51.494;11.958;2023-12-20T08:37:12;7.70;;;2.50;;
7191;SDS011;3637;51.494;11.958;2023-12-20T08:40:15;8.13;;;2.37;;
7191;SDS011;3637;51.494;11.958;2023-12-20T08:43:17;5.50;;;2.23;;
7191;SDS011;3637;51.494;11.958;2023-12-20T08:46:22;5.77;;;2.10;;
7191;SDS011;3637;51.494;11.958;2023-12-20T08:52:44;4.13;;;2.23;;
7191;SDS011;3637;51.494;11.958;2023-12-20T08:55:48;4.37;;;2.60;;
7191;SDS011;3637;51.494;11.958;2023-12-20T08:58:53;7.83;;;2.20;;
7191;SDS011;3637;51.494;11.958;2023-12-20T09:01:57;5.07;;;2.30;;
7191;SDS011;3637;51.494;11.958;2023-12-20T09:05:10;4.00;;;2.20;;
7191;SDS011;3637;51.494;11.958;2023-12-20T09:08:13;3.37;;;2.30;;
7191;SDS011;3637;51.494;11.958;2023-12-20T09:11:16;5.30;;;2.37;;
7191;SDS011;3637;51.494;11.958;2023-12-20T09:14:18;3.80;;;2.33;;
7191;SDS011;3637;51.494;11.958;2023-12-20T09:17:22;6.47;;;2.30;;
7191;SDS011;3637;51.494;11.958;2023-12-20T09:23:43;5.00;;;2.00;;
7191;SDS011;3637;51.494;11.958;2023-12-20T09:26:45;3.10;;;2.07;;
7191;SDS011;3637;51.494;11.958;2023-12-20T09:29:50;3.80;;;2.20;;
7191;SDS011;3637;51.494;11.958;2023-12-20T09:32:54;5.33;;;2.10;;
7191;SDS011;3637;51.494;11.958;2023-12-20T09:35:59;2.97;;;2.10;;
7191;SDS011;3637;51.494;11.958;2023-12-20T09:39:01;5.13;;;2.37;;
7191;SDS011;3637;51.494;11.958;2023-12-20T09:42:05;5.50;;;2.50;;
7191;SDS011;3637;51.494;11.958;2023-12-20T09:45:10;4.80;;;3.30;;
7191;SDS011;3637;51.494;11.958;2023-12-20T09:48:17;4.80;;;2.17;;
7191;SDS011;3637;51.494;11.958;2023-12-20T09:51:22;6.33;;;2.57;;
7191;SDS011;3637;51.494;11.958;2023-12-20T09:54:24;6.40;;;2.53;;
7191;SDS011;3637;51.494;11.958;2023-12-20T09:57:33;2.67;;;2.33;;
7191;SDS011;3637;51.494;11.958;2023-12-20T10:00:36;4.33;;;2.57;;
7191;SDS011;3637;51.494;11.958;2023-12-20T10:03:56;5.80;;;2.60;;
7191;SDS011;3637;51.494;11.958;2023-12-20T10:07:12;5.30;;;2.60;;
7191;SDS011;3637;51.494;11.958;2023-12-20T10:10:14;4.27;;;2.43;;
7191;SDS011;3637;51.494;11.958;2023-12-20T10:13:18;4.57;;;2.53;;
7191;SDS011;3637;51.494;11.958;2023-12-20T10:16:23;5.27;;;2.60;;
7191;SDS011;3637;51.494;11.958;2023-12-20T10:19:42;7.50;;;2.83;;
7191;SDS011;3637;51.494;11.958;2023-12-20T10:22:48;4.40;;;2.50;;
7191;SDS011;3637;51.494;11.958;2023-12-20T10:25:59;5.87;;;2.73;;
7191;SDS011;3637;51.494;11.958;2023-12-20T10:29:07;8.50;;;2.80;;
7191;SDS011;3637;51.494;11.958;2023-12-20T10:32:22;7.43;;;3.23;;
7191;SDS011;3637;51.494;11.958;2023-12-20T10:35:27;5.20;;;3.20;;
7191;SDS011;3637;51.494;11.958;2023-12-20T10:38:31;4.87;;;2.63;;
7191;SDS011;3637;51.494;11.958;2023-12-20T10:41:37;4.37;;;2.97;;
7191;SDS011;3637;51.494;11.958;2023-12-20T10:44:43;5.73;;;2.83;;
7191;SDS011;3637;51.494;11.958;2023-12-20T10:48:06;4.80;;;2.80;;
7191;SDS011;3637;51.494;11.958;2023-12-20T10:51:08;8.50;;;2.63;;
7191;SDS011;3637;51.494;11.958;2023-12-20T10:54:14;7.73;;;3.33;;
7191;SDS011;3637;51.494;11.958;2023-12-20T10:57:45;4.53;;;2.90;;
7191;SDS011;3637;51.494;11.958;2023-12-20T11:04:17;3.90;;;2.40;;
7191;SDS011;3637;51.494;11.958;2023-12-20T11:07:40;6.90;;;2.90;;
7191;SDS011;3637;51.494;11.958;2023-12-20T11:11:09;6.73;;;2.80;;
7191;SDS011;3637;51.494;11.958;2023-12-20T11:14:34;5.73;;;2.70;;
7191;SDS011;3637;51.494;11.958;2023-12-20T11:18:05;4.10;;;2.43;;
7191;SDS011;3637;51.494;11.958;2023-12-20T11:21:08;6.40;;;2.80;;
7191;SDS011;3637;51.494;11.958;2023-12-20T11:24:33;5.00;;;2.50;;
7191;SDS011;3637;51.494;11.958;2023-12-20T11:31:22;5.63;;;2.53;;
7191;SDS011;3637;51.494;11.958;2023-12-20T11:34:31;4.53;;;2.60;;
7191;SDS011;3637;51.494;11.958;2023-12-20T11:37:35;4.77;;;2.50;;
7191;SDS011;3637;51.494;11.958;2023-12-20T11:41:07;7.00;;;2.70;;
7191;SDS011;3637;51.494;11.958;2023-12-20T11:44:22;4.03;;;2.40;;
7191;SDS011;3637;51.494;11.958;2023-12-20T11:47:24;4.53;;;2.20;;
7191;SDS011;3637;51.494;11.958;2023-12-20T11:50:35;5.43;;;2.30;;
7191;SDS011;3637;51.494;11.958;2023-12-20T11:53:40;5.30;;;2.50;;
7191;SDS011;3637;51.494;11.958;2023-12-20T12:00:04;5.17;;;2.53;;
7191;SDS011;3637;51.494;11.958;2023-12-20T12:03:10;3.77;;;2.23;;
7191;SDS011;3637;51.494;11.958;2023-12-20T12:06:39;6.80;;;2.40;;
7191;SDS011;3637;51.494;11.958;2023-12-20T12:09:42;5.13;;;2.50;;
7191;SDS011;3637;51.494;11.958;2023-12-20T12:12:51;6.73;;;2.87;;
7191;SDS011;3637;51.494;11.958;2023-12-20T12:15:54;4.23;;;2.40;;
7191;SDS011;3637;51.494;11.958;2023-12-20T12:18:56;7.00;;;2.30;;
7191;SDS011;3637;51.494;11.958;2023-12-20T12:25:26;4.87;;;2.10;;
7191;SDS011;3637;51.494;11.958;2023-12-20T12:28:29;6.37;;;2.47;;
7191;SDS011;3637;51.494;11.958;2023-12-20T12:31:34;7.17;;;2.40;;
7191;SDS011;3637;51.494;11.958;2023-12-20T12:34:39;4.93;;;2.47;;
7191;SDS011;3637;51.494;11.958;2023-12-20T12:37:52;3.07;;;2.30;;
7191;SDS011;3637;51.494;11.958;2023-12-20T12:41:19;5.33;;;2.10;;
7191;SDS011;3637;51.494;11.958;2023-12-20T12:44:38;4.30;;;2.03;;
7191;SDS011;3637;51.494;11.958;2023-12-20T12:47:46;3.47;;;2.40;;
7191;SDS011;3637;51.494;11.958;2023-12-20T12:50:53;4.10;;;2.20;;
7191;SDS011;3637;51.494;11.958;2023-12-20T12:54:17;4.60;;;2.37;;
7191;SDS011;3637;51.494;11.958;2023-12-20T12:57:24;8.77;;;2.30;;
7191;SDS011;3637;51.494;11.958;2023-12-20T13:00:26;4.40;;;2.30;;
7191;SDS011;3637;51.494;11.958;2023-12-20T13:03:31;3.60;;;2.10;;
7191;SDS011;3637;51.494;11.958;2023-12-20T13:06:34;2.63;;;2.10;;
7191;SDS011;3637;51.494;11.958;2023-12-20T13:12:56;4.60;;;2.40;;
7191;SDS011;3637;51.494;11.958;2023-12-20T13:15:59;3.40;;;2.17;;
7191;SDS011;3637;51.494;11.958;2023-12-20T13:19:02;2.87;;;1.87;;
7191;SDS011;3637;51.494;11.958;2023-12-20T13:22:08;4.50;;;2.33;;
7191;SDS011;3637;51.494;11.958;2023-12-20T13:25:11;7.03;;;2.40;;
7191;SDS011;3637;51.494;11.958;2023-12-20T13:28:14;6.20;;;2.20;;
7191;SDS011;3637;51.494;11.958;2023-12-20T13:31:17;2.90;;;2.10;;
7191;SDS011;3637;51.494;11.958;2023-12-20T13:34:21;4.07;;;2.27;;
7191;SDS011;3637;51.494;11.958;2023-12-20T13:37:23;5.40;;;2.13;;
7191;SDS011;3637;51.494;11.958;2023-12-20T13:40:27;5.67;;;2.40;;
7191;SDS011;3637;51.494;11.958;2023-12-20T13:43:31;4.37;;;2.20;;
7191;SDS011;3637;51.494;11.958;2023-12-20T13:46:35;5.23;;;2.30;;
7191;SDS011;3637;51.494;11.958;2023-12-20T13:50:09;3.47;;;2.13;;
7191;SDS011;3637;51.494;11.958;2023-12-20T13:53:14;6.17;;;2.40;;
7191;SDS011;3637;51.494;11.958;2023-12-20T13:56:23;3.90;;;2.03;;
7191;SDS011;3637;51.494;11.958;2023-12-20T13:59:25;3.40;;;2.10;;
7191;SDS011;3637;51.494;11.958;2023-12-20T14:02:27;4.53;;;2.30;;
7191;SDS011;3637;51.494;11.958;2023-12-20T14:05:35;4.87;;;2.90;;
7191;SDS011;3637;51.494;11.958;2023-12-20T14:08:38;3.03;;;2.30;;
7191;SDS011;3637;51.494;11.958;2023-12-20T14:11:45;6.03;;;2.50;;
7191;SDS011;3637;51.494;11.958;2023-12-20T14:14:47;5.43;;;2.47;;
7191;SDS011;3637;51.494;11.958;2023-12-20T14:17:51;2.50;;;2.10;;
7191;SDS011;3637;51.494;11.958;2023-12-20T14:20:53;3.73;;;2.13;;
7191;SDS011;3637;51.494;11.958;2023-12-20T14:24:06;5.33;;;2.30;;
7191;SDS011;3637;51.494;11.958;2023-12-20T14:27:14;3.07;;;2.00;;
7191;SDS011;3637;51.494;11.958;2023-12-20T14:30:18;4.83;;;2.33;;
7191;SDS011;3637;51.494;11.958;2023-12-20T14:33:20;5.03;;;2.60;;
7191;SDS011;3637;51.494;11.958;2023-12-20T14:36:22;3.37;;;2.43;;
7191;SDS011;3637;51.494;11.958;2023-12-20T14:39:25;6.07;;;2.63;;
7191;SDS011;3637;51.494;11.958;2023-12-20T14:42:46;3.90;;;2.30;;
7191;SDS011;3637;51.494;11.958;2023-12-20T14:45:49;2.77;;;2.10;;
7191;SDS011;3637;51.494;11.958;2023-12-20T14:48:54;4.07;;;2.47;;
7191;SDS011;3637;51.494;11.958;2023-12-20T14:52:00;4.83;;;2.73;;
7191;SDS011;3637;51.494;11.958;2023-12-20T14:55:08;4.17;;;2.17;;
7191;SDS011;3637;51.494;11.958;2023-12-20T14:58:14;2.63;;;1.90;;
7191;SDS011;3637;51.494;11.958;2023-12-20T15:01:19;3.47;;;2.00;;
7191;SDS011;3637;51.494;11.958;2023-12-20T15:04:22;3.07;;;2.10;;
7191;SDS011;3637;51.494;11.958;2023-12-20T15:07:29;5.07;;;2.50;;
7191;SDS011;3637;51.494;11.958;2023-12-20T15:10:33;3.43;;;2.33;;
7191;SDS011;3637;51.494;11.958;2023-12-20T15:13:40;3.27;;;2.37;;
7191;SDS011;3637;51.494;11.958;2023-12-20T15:16:42;3.27;;;2.30;;
7191;SDS011;3637;51.494;11.958;2023-12-20T15:19:47;2.93;;;2.33;;
7191;SDS011;3637;51.494;11.958;2023-12-20T15:22:50;3.57;;;2.20;;
7191;SDS011;3637;51.494;11.958;2023-12-20T15:25:53;5.13;;;2.30;;
7191;SDS011;3637;51.494;11.958;2023-12-20T15:28:59;5.43;;;2.50;;
7191;SDS011;3637;51.494;11.958;2023-12-20T15:32:01;3.23;;;2.17;;
7191;SDS011;3637;51.494;11.958;2023-12-20T15:35:04;3.40;;;2.20;;
7191;SDS011;3637;51.494;11.958;2023-12-20T15:38:13;4.77;;;2.73;;
7191;SDS011;3637;51.494;11.958;2023-12-20T15:41:20;5.10;;;2.43;;
7191;SDS011;3637;51.494;11.958;2023-12-20T15:44:28;3.73;;;2.10;;
7191;SDS011;3637;51.494;11.958;2023-12-20T15:47:39;3.30;;;1.97;;
7191;SDS011;3637;51.494;11.958;2023-12-20T15:50:42;3.57;;;2.83;;
7191;SDS011;3637;51.494;11.958;2023-12-20T15:53:47;4.30;;;2.33;;
7191;SDS011;3637;51.494;11.958;2023-12-20T15:57:06;3.50;;;2.20;;
7191;SDS011;3637;51.494;11.958;2023-12-20T16:00:12;2.43;;;2.03;;
7191;SDS011;3637;51.494;11.958;2023-12-20T16:03:15;4.80;;;2.30;;
7191;SDS011;3637;51.494;11.958;2023-12-20T16:06:17;3.60;;;1.90;;
7191;SDS011;3637;51.494;11.958;2023-12-20T16:09:27;3.87;;;2.53;;
7191;SDS011;3637;51.494;11.958;2023-12-20T16:12:47;6.43;;;2.40;;
7191;SDS011;3637;51.494;11.958;2023-12-20T16:15:53;3.27;;;2.33;;
7191;SDS011;3637;51.494;11.958;2023-12-20T16:18:56;3.10;;;2.43;;
7191;SDS011;3637;51.494;11.958;2023-12-20T16:22:00;2.60;;;2.30;;
7191;SDS011;3637;51.494;11.958;2023-12-20T16:25:03;3.77;;;2.63;;
7191;SDS011;3637;51.494;11.958;2023-12-20T16:28:12;3.80;;;2.70;;
7191;SDS011;3637;51.494;11.958;2023-12-20T16:31:17;5.17;;;2.83;;
7191;SDS011;3637;51.494;11.958;2023-12-20T16:34:19;4.00;;;2.77;;
7191;SDS011;3637;51.494;11.958;2023-12-20T16:37:21;2.93;;;2.60;;
7191;SDS011;3637;51.494;11.958;2023-12-20T16:40:25;4.47;;;2.70;;
7191;SDS011;3637;51.494;11.958;2023-12-20T16:43:26;4.43;;;2.60;;
7191;SDS011;3637;51.494;11.958;2023-12-20T16:46:30;3.30;;;2.83;;
7191;SDS011;3637;51.494;11.958;2023-12-20T16:49:35;3.60;;;2.67;;
7191;SDS011;3637;51.494;11.958;2023-12-20T16:52:37;2.70;;;2.30;;
7191;SDS011;3637;51.494;11.958;2023-12-20T16:55:40;2.40;;;2.20;;
7191;SDS011;3637;51.494;11.958;2023-12-20T16:58:44;2.63;;;2.23;;
7191;SDS011;3637;51.494;11.958;2023-12-20T17:01:47;4.43;;;2.20;;
7191;SDS011;3637;51.494;11.958;2023-12-20T17:05:09;3.03;;;2.13;;
7191;SDS011;3637;51.494;11.958;2023-12-20T17:08:11;2.53;;;1.90;;
7191;SDS011;3637;51.494;11.958;2023-12-20T17:11:14;2.70;;;2.20;;
7191;SDS011;3637;51.494;11.958;2023-12-20T17:14:18;4.33;;;2.37;;
7191;SDS011;3637;51.494;11.958;2023-12-20T17:17:23;3.07;;;2.20;;
7191;SDS011;3637;51.494;11.958;2023-12-20T17:20:25;3.63;;;2.27;;
7191;SDS011;3637;51.494;11.958;2023-12-20T17:23:28;2.07;;;1.90;;
7191;SDS011;3637;51.494;11.958;2023-12-20T17:26:30;3.27;;;2.00;;
7191;SDS011;3637;51.494;11.958;2023-12-20T17:29:34;2.17;;;1.97;;
7191;SDS011;3637;51.494;11.958;2023-12-20T17:32:38;2.60;;;1.97;;
7191;SDS011;3637;51.494;11.958;2023-12-20T17:35:42;4.13;;;2.17;;
7191;SDS011;3637;51.494;11.958;2023-12-20T17:38:44;3.33;;;1.90;;
7191;SDS011;3637;51.494;11.958;2023-12-20T17:41:50;2.63;;;1.83;;
7191;SDS011;3637;51.494;11.958;2023-12-20T17:44:52;2.40;;;2.20;;
7191;SDS011;3637;51.494;11.958;2023-12-20T17:48:06;3.03;;;2.20;;
7191;SDS011;3637;51.494;11.958;2023-12-20T17:51:09;2.73;;;2.20;;
7191;SDS011;3637;51.494;11.958;2023-12-20T17:54:11;2.50;;;2.30;;
7191;SDS011;3637;51.494;11.958;2023-12-20T17:57:14;2.90;;;2.10;;
7191;SDS011;3637;51.494;11.958;2023-12-20T18:00:19;3.10;;;2.30;;
7191;SDS011;3637;51.494;11.958;2023-12-20T18:03:26;3.27;;;2.33;;
7191;SDS011;3637;51.494;11.958;2023-12-20T18:06:29;3.87;;;2.83;;
7191;SDS011;3637;51.494;11.958;2023-12-20T18:09:37;5.50;;;2.60;;
7191;SDS011;3637;51.494;11.958;2023-12-20T18:12:42;4.30;;;2.97;;
7191;SDS011;3637;51.494;11.958;2023-12-20T18:15:47;4.80;;;2.57;;
7191;SDS011;3637;51.494;11.958;2023-12-20T18:18:50;4.80;;;2.87;;
7191;SDS011;3637;51.494;11.958;2023-12-20T18:21:55;6.53;;;3.30;;
7191;SDS011;3637;51.494;11.958;2023-12-20T18:24:58;4.27;;;2.90;;
7191;SDS011;3637;51.494;11.958;2023-12-20T18:28:00;3.77;;;2.60;;
7191;SDS011;3637;51.494;11.958;2023-12-20T18:31:04;3.20;;;2.60;;
7191;SDS011;3637;51.494;11.958;2023-12-20T18:34:15;6.43;;;2.70;;
7191;SDS011;3637;51.494;11.958;2023-12-20T18:37:20;3.83;;;3.00;;
7191;SDS011;3637;51.494;11.958;2023-12-20T18:40:22;4.20;;;2.67;;
7191;SDS011;3637;51.494;11.958;2023-12-20T18:43:27;4.60;;;2.80;;
7191;SDS011;3637;51.494;11.958;2023-12-20T18:46:29;4.87;;;2.87;;
7191;SDS011;3637;51.494;11.958;2023-12-20T18:49:37;4.43;;;3.00;;
7191;SDS011;3637;51.494;11.958;2023-12-20T18:52:39;3.70;;;2.97;;
7191;SDS011;3637;51.494;11.958;2023-12-20T18:55:42;6.50;;;3.23;;
7191;SDS011;3637;51.494;11.958;2023-12-20T18:58:44;5.27;;;3.03;;
7191;SDS011;3637;51.494;11.958;2023-12-20T19:01:50;5.57;;;3.37;;
7191;SDS011;3637;51.494;11.958;2023-12-20T19:05:00;4.37;;;3.67;;
7191;SDS011;3637;51.494;11.958;2023-12-20T19:08:04;5.23;;;3.90;;
7191;SDS011;3637;51.494;11.958;2023-12-20T19:11:10;6.33;;;4.30;;
7191;SDS011;3637;51.494;11.958;2023-12-20T19:14:21;5.90;;;4.70;;
7191;SDS011;3637;51.494;11.958;2023-12-20T19:17:26;6.43;;;3.80;;
7191;SDS011;3637;51.494;11.958;2023-12-20T19:28:08;5.93;;;3.53;;
7191;SDS011;3637;51.494;11.958;2023-12-20T19:34:56;6.73;;;3.83;;
7191;SDS011;3637;51.494;11.958;2023-12-20T19:38:15;4.10;;;3.20;;
7191;SDS011;3637;51.494;11.958;2023-12-20T19:41:59;6.07;;;3.47;;
7191;SDS011;3637;51.494;11.958;2023-12-20T19:45:37;9.63;;;3.80;;